WEATHER DATA

YESTERDAY
Time Temp. Dewp. Hum. Wind dir Wind speed Wind gust Bar. 1h Prec. 24h Prec.
00:01 23 18.3 75 229 2.2 2.8 1003.3 0.0000 0.0000
00:11 22.9 18.4 76 235 2.2 3.6 1003.1 0.0000 0.0000
00:21 22.8 18.1 75 234 2.2 2.8 1003 0.0000 0.0000
00:31 22.8 18.1 75 232 2.2 3.6 1002.9 0.0000 0.0000
00:41 22.7 18 75 231 2.2 2.8 1002.8 0.0000 0.0000
00:51 22.7 18 75 231 2.2 2.8 1002.6 0.0000 0.0000
01:02 22.4 19.4 83 219 2.2 3.1 1002.4 0.0000 0.0000
01:11 22.1 18.9 82 228 2.2 3.1 1002.2 0.0000 0.0000
01:21 21.9 19.8 88 220 2.2 2.8 1002.3 0.0000 0.0000
01:32 21.6 19.7 89 219 2.2 3.1 1002.2 0.0000 0.0000
01:42 21.3 19.4 89 222 2.2 3.1 1002 0.0000 0.0000
01:52 21.3 19.2 88 224 2.2 2.8 1001.9 0.0000 0.0000
02:01 21.3 19.2 88 219 2.2 2.5 1002 0.0000 0.0000
02:12 21.3 19.2 88 217 1.7 2.5 1002.1 0.0000 0.0000
02:22 21.5 19.2 87 220 2.2 2.5 1001.9 0.0000 0.0000
02:32 21.6 19.2 86 218 1.7 2.5 1002 0.0000 0.0000
02:42 21.6 18.8 84 214 1.7 2.8 1002.2 0.0000 0.0000
02:52 21.3 18.7 85 217 1.7 3.1 1002.2 0.0000 0.0000
03:02 20.9 19 89 212 1.7 3.1 1002.2 0.0000 0.0000
03:12 20.5 18.8 90 207 1.7 2.8 1002.1 0.0000 0.0000
03:23 20.2 18.5 90 219 1.7 2.8 1001.8 0.0000 0.0000
03:32 20.1 18.4 90 205 1.7 2.8 1001.7 0.0000 0.0000
03:42 20.2 18.3 89 216 1.4 2.5 1001.6 0.0000 0.0000
03:53 20.3 18.2 88 213 1.7 2.8 1001.6 0.0000 0.0000
04:03 20.3 18.1 87 217 1.7 2.5 1001.6 0.0000 0.0000
04:13 20.2 18 87 215 1.7 2.8 1001.7 0.0000 0.0000
04:22 20.1 17.9 87 216 1.7 2.8 1001.8 0.0000 0.0000
04:33 20.1 17.9 87 217 2.2 3.1 1001.8 0.0000 0.0000
04:43 20 17.8 87 217 2.2 2.8 1001.9 0.0000 0.0000
04:53 19.8 17.4 86 215 2.2 3.1 1001.9 0.0000 0.0000
05:03 19.8 17.4 86 216 1.7 2.8 1001.9 0.0000 0.0000
05:13 19.7 17.3 86 215 1.7 2.5 1002 0.0000 0.0000
05:23 19.6 17.4 87 212 1.4 2.2 1002.2 0.0000 0.0000
05:33 19.4 17.2 87 213 1.7 2.5 1002.3 0.0000 0.0000
05:44 19.4 17.2 87 215 1.7 2.5 1002.3 0.0000 0.0000
05:54 19.4 17.2 87 219 2.2 2.8 1002.3 0.0000 0.0000
06:03 19.5 17.3 87 215 1.4 2.5 1002.4 0.0000 0.0000
06:14 19.5 17.3 87 217 1.7 3.1 1002.2 0.0000 0.0000
06:24 19.5 17.3 87 216 2.2 2.8 1002.3 0.0000 0.0000
06:34 19.6 17.4 87 221 2.2 2.5 1002.3 0.0000 0.0000
06:44 19.6 17.4 87 215 1.7 2.8 1002.3 0.0000 0.0000
06:54 19.7 17.5 87 205 1.4 2.8 1002.4 0.0000 0.0000
07:04 19.8 17.6 87 217 1.7 2.5 1002.4 0.0000 0.0000
07:14 20 17.6 86 209 1.7 2.5 1002.3 0.0000 0.0000
07:24 20.3 17.9 86 212 1.7 2.8 1002.3 0.0000 0.0000
07:34 20.4 17.8 85 190 1.7 2.8 1002.4 0.0000 0.0000
07:44 19.8 18.6 93 197 2.2 3.9 1002.3 0.0000 0.0000
07:54 19.3 18.3 94 189 1.7 2.8 1002.4 0.0000 0.0000
08:05 19.1 18.1 94 205 1.7 3.1 1002.3 0.0000 0.0000
08:14 19.2 18.2 94 215 1.4 2.5 1002.2 0.0000 0.0000
08:24 19.5 18.5 94 201 1.1 2.2 1002.4 0.0000 0.0000
08:35 19.5 18.5 94 212 1.4 2.5 1002.4 0.0000 0.0000
08:45 19.6 18.6 94 219 1.4 2.5 1002.5 0.0000 0.0000
08:55 19.8 18.8 94 210 1.4 2.8 1002.5 0.0000 0.0000
09:04 20 19 94 209 1.7 3.6 1002.5 0.0000 0.0000
09:15 20.3 19.3 94 200 1.1 2.5 1002.7 0.0000 0.0000
09:25 20.5 19.7 95 199 1.4 2.8 1002.7 0.0000 0.0000
09:35 20.8 20 95 207 1.7 4.7 1002.8 0.0000 0.0000
09:45 21.2 20.4 95 207 1.1 2.5 1002.9 0.0000 0.0000
09:55 21.5 20.7 95 216 2.2 4.7 1003 0.0000 0.0000
10:05 21.6 20.8 95 210 2.2 5.6 1003.1 0.0000 0.0000
10:15 21.6 20.8 95 206 2.2 3.6 1003.1 0.0000 0.0000
10:26 21.9 21.1 95 223 1.4 3.1 1003.1 0.0000 0.0000
10:36 22 21.2 95 206 3.1 5.3 1003.4 0.0000 0.0000
10:45 21.8 21 95 211 3.1 4.7 1003.4 0.0000 0.0000
10:56 21.4 19.9 91 212 3.9 6.7 1003.7 0.0000 0.0000
11:06 20.6 19.1 91 212 3.6 6.4 1004.1 0.0000 0.0000
11:16 19.8 18.5 92 216 4.2 7.8 1004.4 0.0000 0.0000
11:25 19.1 17.8 92 211 3.1 5.3 1004.6 0.0000 0.0000
11:36 18.6 17.3 92 213 3.1 5.3 1004.9 0.0000 0.0000
11:46 18.6 17.4 93 216 2.8 6.1 1004.9 0.0000 0.0000
11:56 19.2 18.2 94 213 2.5 5 1005.1 0.0000 0.0000
12:06 19.3 18.3 94 214 2.8 5.3 1005.2 0.0000 0.0000
12:16 19.3 18.1 93 212 3.1 4.7 1005.5 0.0000 0.0000
12:26 19.9 18.6 92 215 3.1 6.1 1005.7 0.0000 0.0000
12:36 20 19 94 214 2.8 5.3 1005.8 0.0000 0.0000
12:47 20 18.8 93 213 3.6 6.1 1006.1 0.0000 0.0000
12:57 20 18.8 93 219 3.6 6.7 1006.3 0.0000 0.0000
13:06 20.2 19 93 213 3.1 6.9 1006.5 0.0000 0.0000
13:16 20.2 18.9 92 213 3.6 6.4 1006.8 0.0000 0.0000
13:27 20.3 18.8 91 215 3.9 6.4 1006.9 0.0000 0.0000
13:37 20.4 18.9 91 214 3.1 5.6 1006.9 0.0000 0.0000
13:47 21.2 19.8 92 215 3.1 5 1007 0.0000 0.0000
13:57 21.1 19.6 91 215 2.8 5.3 1007.2 0.0000 0.0000
14:07 21.4 19.7 90 213 3.1 6.1 1007.4 0.0000 0.0000
14:17 22.3 20.8 91 211 2.8 4.7 1007.5 0.0000 0.0000
14:27 22.4 20.7 90 209 2.8 6.1 1007.6 0.0000 0.0000
14:38 22 20.5 91 203 3.6 6.4 1007.8 0.0000 0.0000
14:47 21.5 19.6 89 214 3.1 5 1007.9 0.0000 0.0000
14:57 21.1 19.4 90 212 3.6 5.6 1008.2 0.0000 0.0000
15:08 20.9 19.2 90 217 3.6 5.3 1008.2 0.0000 0.0000
15:18 21.2 19.7 91 215 3.6 6.7 1008.3 0.0000 0.0000
15:28 21.1 19.4 90 211 3.1 5.6 1008.5 0.0000 0.0000
15:37 21.2 19.7 91 215 3.6 5.3 1008.5 0.0000 0.0000
15:48 21.1 19.4 90 212 3.6 5.3 1008.5 0.0000 0.0000
15:58 20.9 19.4 91 211 3.6 5.3 1008.7 0.0000 0.0000
16:08 20.5 19 91 214 3.1 6.4 1008.8 0.0000 0.0000
16:18 20.8 19.3 91 216 3.1 5.6 1008.8 0.0000 0.0000
16:28 20.9 19.4 91 214 2.8 4.7 1008.8 0.0000 0.0000
16:38 21.1 19.6 91 215 2.8 4.7 1008.9 0.0000 0.0000
16:48 21 19.5 91 233 2.5 4.2 1009 0.0000 0.0000
16:59 21 19.3 90 210 3.1 5.6 1009 0.0000 0.0000
17:08 21.4 19.7 90 209 2.8 4.2 1008.9 0.0000 0.0000
17:18 21.8 19.9 89 210 3.1 4.7 1008.8 0.0000 0.0000
17:29 21 18.9 88 209 2.5 3.6 1008.9 0.0000 0.0000
17:39 20.6 19.1 91 218 2.8 4.7 1008.9 0.0000 0.0000
17:49 20.2 18.7 91 212 2.8 6.1 1008.8 0.0000 0.0000
17:58 20.2 18.7 91 227 2.8 5 1008.9 0.0000 0.0000
18:09 20 18.5 91 216 2.5 4.2 1009 0.0000 0.0000
18:19 20.3 18.8 91 205 2.8 5.3 1009 0.0000 0.0000
18:29 19.8 18.1 90 216 2.5 4.2 1009.1 0.0000 0.0000
18:39 19.6 18.1 91 217 2.8 5.6 1009.2 0.0000 0.0000
18:49 19.5 18 91 225 2.8 6.1 1009.2 0.0000 0.0000
18:59 19.4 17.9 91 219 2.5 3.9 1009.2 0.0000 0.0000
19:09 19.3 17.8 91 220 2.5 4.7 1009.2 0.0000 0.0000
19:20 19.2 17.7 91 218 2.8 5 1009.3 0.0000 0.0000
19:29 19.2 17.7 91 218 2.5 4.7 1009.3 0.0000 0.0000
19:39 19 17.3 90 223 2.5 4.2 1009.4 0.0000 0.0000
19:50 18.8 17.1 90 221 2.5 3.6 1009.6 0.0000 0.0000
20:00 18.8 16.9 89 220 2.5 3.6 1009.5 0.0000 0.0000
20:10 18.6 16.6 88 218 2.5 3.9 1009.6 0.0000 0.0000
20:19 18.5 16.5 88 218 2.2 3.6 1009.6 0.0000 0.0000
20:30 18.4 16.6 89 220 2.5 3.6 1009.5 0.0000 0.0000
20:40 18.4 15.8 85 220 2.5 3.9 1009.6 0.0000 0.0000
20:50 18.5 16.1 86 225 2.5 3.1 1009.7 0.0000 0.0000
21:00 18.4 16.2 87 217 2.2 4.2 1010 0.0000 0.0000
21:10 18.4 15.8 85 214 2.2 2.8 1010.2 0.0000 0.0000
21:30 18.3 15.7 85 215 2.2 3.6 1010.2 0.0000 0.0000
21:41 18.2 15.6 85 214 2.2 3.1 1010.3 0.0000 0.0000
21:50 18.2 15.6 85 216 2.2 3.1 1010.3 0.0000 0.0000
22:00 18.1 15.5 85 217 2.2 2.8 1010.4 0.0000 0.0000
22:11 18.1 15.4 84 206 1.7 2.8 1010.5 0.0000 0.0000
22:21 18.1 15.4 84 216 2.2 3.1 1010.6 0.0000 0.0000
22:31 18.1 15.4 84 213 2.2 2.8 1010.8 0.0000 0.0000
22:40 18 15.1 83 212 2.2 3.1 1010.9 0.0000 0.0000
22:51 17.9 15 83 212 2.2 3.9 1011.1 0.0000 0.0000
23:01 17.8 14.7 82 220 2.2 3.9 1011 0.0000 0.0000
23:11 17.7 14.8 83 220 2.2 2.8 1011.1 0.0000 0.0000
23:21 17.7 14.8 83 201 2.2 3.1 1011.2 0.0000 0.0000
23:31 17.7 14.6 82 221 2.2 3.6 1011.2 0.0000 0.0000
23:41 17.6 14.5 82 219 2.2 2.8 1011.2 0.0000 0.0000
23:51 17.6 14.5 82 211 2.2 3.1 1011.3 0.0000 0.0000

DAY STATISTIC

2021-06-21
TEMPERATURE
AVERAGE
20.1
HIGH
23.0
00:01
LOW
17.6
23:41
PRESSURE
AVERAGE
1005.7
HIGH
1011.3
23:51
LOW
1001.6
03:42
DEWPOINT
AVERAGE
18.2
HIGH
21.2
10:36
LOW
14.5
23:41
HUMIDITY
AVERAGE
89
HIGH
95
09:25
LOW
75
00:01
WIND SPEED
AVERAGE
2.4
HIGH
4.2
11:16
WIND GUST
AVERAGE
4.0
HIGH
7.8
11:16
WIND DIRECTION
PREVAILING
SW
94.4%
N
0.0
NE
0.0
E
0.0
SE
0.0
S
5.6
SW
94.4
W
0.0
NW
0.0
PRECIPITATION
RAIN HOUR
0.0
RAIN DAY
0.0
TEMPERATURE (°C)
LOW
17.6
HIGH
23.0
AVERAGE
20.1
PRESSURE (hpa)
LOW
1001.6
HIGH
1011.3
AVERAGE
1005.7
DEVICE